createdAt,value
2018-07-02T00:00:08.876Z,99.99
2018-07-02T00:01:08.869Z,99.99
2018-07-02T00:02:08.845Z,99.99
2018-07-02T00:03:08.829Z,99.99
2018-07-02T00:04:08.856Z,99.99
2018-07-02T00:05:09.373Z,99.99
2018-07-02T00:06:08.511Z,99.99
2018-07-02T00:07:08.502Z,99.99
2018-07-02T00:08:08.787Z,99.99
2018-07-02T00:09:09.230Z,99.99
2018-07-02T00:10:08.778Z,99.99
2018-07-02T00:11:08.462Z,99.99
2018-07-02T00:12:08.732Z,99.99
2018-07-02T00:13:08.437Z,99.99
2018-07-02T00:14:08.425Z,99.99
2018-07-02T00:15:08.728Z,99.99
2018-07-02T00:16:08.704Z,99.99
2018-07-02T00:17:08.696Z,99.99
2018-07-02T00:18:09.162Z,99.99
2018-07-02T00:19:08.648Z,99.99
2018-07-02T00:20:08.638Z,99.99
2018-07-02T00:21:08.353Z,99.99
2018-07-02T00:22:09.117Z,99.99
2018-07-02T00:23:08.604Z,99.99
2018-07-02T00:24:08.607Z,99.99
2018-07-02T00:25:08.309Z,99.99
2018-07-02T00:26:08.296Z,99.99
2018-07-02T00:27:08.573Z,99.99
2018-07-02T00:28:08.573Z,99.99
2018-07-02T00:29:08.265Z,99.99
2018-07-02T00:30:09.048Z,99.99
2018-07-02T00:31:08.245Z,99.99
2018-07-02T00:32:08.231Z,99.99
2018-07-02T00:33:08.534Z,99.99
2018-07-02T00:34:08.951Z,99.99
2018-07-02T00:35:08.202Z,99.99
2018-07-02T00:36:08.474Z,99.99
2018-07-02T00:37:08.177Z,99.73
2018-07-02T00:38:08.483Z,98.88
2018-07-02T00:39:08.158Z,98.02
2018-07-02T00:40:08.432Z,97.45
2018-07-02T00:41:08.133Z,97.07
2018-07-02T00:42:08.400Z,95.84
2018-07-02T00:43:08.409Z,94.6
2018-07-02T00:44:08.391Z,94.51
2018-07-02T00:45:08.886Z,93.08
2018-07-02T00:46:08.368Z,93.08
2018-07-02T00:47:08.069Z,92.9
2018-07-02T00:48:08.392Z,93.08
2018-07-02T00:49:08.045Z,92.99
2018-07-02T00:50:08.319Z,92.32
2018-07-02T00:51:08.303Z,92.99
2018-07-02T00:52:08.298Z,92.61
2018-07-02T00:53:08.282Z,93.27
2018-07-02T00:54:08.278Z,93.18
2018-07-02T00:55:08.265Z,93.65
2018-07-02T00:56:07.969Z,94.42
2018-07-02T00:57:08.230Z,94.51
2018-07-02T00:58:08.219Z,94.79
2018-07-02T00:59:08.221Z,94.7
2018-07-02T01:00:07.920Z,96.12
2018-07-02T01:01:08.210Z,97.27
2018-07-02T01:02:08.187Z,97.74
2018-07-02T01:03:08.762Z,97.36
2018-07-02T01:04:08.186Z,97.36
2018-07-02T01:05:08.150Z,98.02
2018-07-02T01:06:07.862Z,97.92
2018-07-02T01:07:08.115Z,97.92
2018-07-02T01:08:07.832Z,98.21
2018-07-02T01:09:08.109Z,98.88
2018-07-02T01:10:08.081Z,99.07
2018-07-02T01:11:08.075Z,99.99
2018-07-02T01:12:07.786Z,99.99
2018-07-02T01:13:08.512Z,99.99
2018-07-02T01:14:08.042Z,99.99
2018-07-02T01:15:07.754Z,99.99
2018-07-02T01:16:07.744Z,99.99
2018-07-02T01:17:07.734Z,99.99
2018-07-02T01:18:08.000Z,99.99
2018-07-02T01:19:08.540Z,99.99
2018-07-02T01:20:08.014Z,99.92
2018-07-02T01:21:07.956Z,99.35
2018-07-02T01:22:08.494Z,99.26
2018-07-02T01:23:07.951Z,98.4
2018-07-02T01:24:07.929Z,99.44
2018-07-02T01:25:07.948Z,99.64
2018-07-02T01:26:07.915Z,99.44
2018-07-02T01:27:07.937Z,99.35
2018-07-02T01:28:07.607Z,99.92
2018-07-02T01:29:07.594Z,99.44
2018-07-02T01:30:07.582Z,99.44
2018-07-02T01:31:08.367Z,99.73
2018-07-02T01:32:07.837Z,99.99
2018-07-02T01:33:07.551Z,99.16
2018-07-02T01:34:07.835Z,98.21
2018-07-02T01:35:07.805Z,99.49
2018-07-02T01:36:07.801Z,99.16
2018-07-02T01:37:07.776Z,99.35
2018-07-02T01:38:07.781Z,99.44
2018-07-02T01:39:07.762Z,99.99
2018-07-02T01:40:07.764Z,99.99
2018-07-02T01:41:08.283Z,99.99
2018-07-02T01:42:07.750Z,99.99
2018-07-02T01:43:07.718Z,99.64
2018-07-02T01:44:08.032Z,98.97
2018-07-02T01:45:07.710Z,98.59
2018-07-02T01:46:07.688Z,98.21
2018-07-02T01:47:07.686Z,98.31
2018-07-02T01:48:07.378Z,96.69
2018-07-02T01:49:07.673Z,96.98
2018-07-02T01:50:07.627Z,97.36
2018-07-02T01:51:07.344Z,97.27
2018-07-02T01:52:07.332Z,97.55
2018-07-02T01:53:07.628Z,97.31
2018-07-02T01:54:07.311Z,97.36
2018-07-02T01:55:07.574Z,97.36
2018-07-02T01:56:07.289Z,97.36
2018-07-02T01:57:07.947Z,97.36
2018-07-02T01:58:07.562Z,98.69
2018-07-02T01:59:07.255Z,98.97
2018-07-02T02:00:07.244Z,99.16
2018-07-02T02:01:08.096Z,99.35
2018-07-02T02:02:07.491Z,99.02
2018-07-02T02:03:07.208Z,99.99
2018-07-02T02:04:07.480Z,99.3
2018-07-02T02:05:07.560Z,99.99
2018-07-02T02:06:07.174Z,99.99
2018-07-02T02:07:07.162Z,99.99
2018-07-02T02:08:07.431Z,99.99
2018-07-02T02:09:07.139Z,99.99
2018-07-02T02:10:07.419Z,99.99
2018-07-02T02:11:07.121Z,99.99
2018-07-02T02:12:07.397Z,99.99
2018-07-02T02:13:07.363Z,99.99
2018-07-02T02:14:07.082Z,99.99
2018-07-02T02:15:07.349Z,99.99
2018-07-02T02:16:07.350Z,99.99
2018-07-02T02:17:07.050Z,99.99
2018-07-02T02:18:07.828Z,99.99
2018-07-02T02:19:07.308Z,99.99
2018-07-02T02:20:07.318Z,99.99
2018-07-02T02:21:07.280Z,99.99
2018-07-02T02:22:07.829Z,99.99
2018-07-02T02:23:07.254Z,99.99
2018-07-02T02:24:07.242Z,99.99
2018-07-02T02:25:07.237Z,99.99
2018-07-02T02:26:07.859Z,99.99
2018-07-02T02:27:07.201Z,99.99
2018-07-02T02:28:06.925Z,99.68
2018-07-02T02:29:07.205Z,99.49
2018-07-02T02:30:07.666Z,99.02
2018-07-02T02:31:06.894Z,99.77
2018-07-02T02:32:07.151Z,99.87
2018-07-02T02:33:07.146Z,99.49
2018-07-02T02:34:07.679Z,99.87
2018-07-02T02:35:06.841Z,99.68
2018-07-02T02:36:06.837Z,99.77
2018-07-02T02:37:07.125Z,99.99
2018-07-02T02:38:07.083Z,99.99
2018-07-02T02:39:06.799Z,99.99
2018-07-02T02:40:07.087Z,99.99
2018-07-02T02:41:07.058Z,99.99
2018-07-02T02:42:06.766Z,99.87
2018-07-02T02:43:07.023Z,99.11
2018-07-02T02:44:06.739Z,97.88
2018-07-02T02:45:07.004Z,98.83
2018-07-02T02:46:07.012Z,99.21
2018-07-02T02:47:07.421Z,99.21
2018-07-02T02:48:06.961Z,98.45
2018-07-02T02:49:06.681Z,98.45
2018-07-02T02:50:06.668Z,99.11
2018-07-02T02:51:06.663Z,99.49
2018-07-02T02:52:06.647Z,99.3
2018-07-02T02:53:06.911Z,99.87
2018-07-02T02:54:06.893Z,99.99
2018-07-02T02:55:07.260Z,99.99
2018-07-02T02:56:06.875Z,99.99
2018-07-02T02:57:06.868Z,99.99
2018-07-02T02:58:06.849Z,99.99
2018-07-02T02:59:07.369Z,99.99
2018-07-02T03:00:06.822Z,99.99
2018-07-02T03:01:06.834Z,99.99
2018-07-02T03:02:06.823Z,99.99
2018-07-02T03:03:07.224Z,99.99
2018-07-02T03:04:06.828Z,99.99
2018-07-02T03:05:06.766Z,99.99
2018-07-02T03:06:06.759Z,98.54
2018-07-02T03:07:06.745Z,98.83
2018-07-02T03:08:06.733Z,98.26
2018-07-02T03:09:06.718Z,97.31
2018-07-02T03:10:06.728Z,96.45
2018-07-02T03:11:06.711Z,95.89
2018-07-02T03:12:07.308Z,96.26
2018-07-02T03:13:06.684Z,96.93
2018-07-02T03:14:06.665Z,97.88
2018-07-02T03:15:06.666Z,98.07
2018-07-02T03:16:07.092Z,96.74
2018-07-02T03:17:06.357Z,96.64
2018-07-02T03:18:06.638Z,95.89
2018-07-02T03:19:06.610Z,96.55
2018-07-02T03:20:06.895Z,95.89
2018-07-02T03:21:06.611Z,93.41
2018-07-02T03:22:06.582Z,93.13
2018-07-02T03:23:06.289Z,91.71
2018-07-02T03:24:06.573Z,91.99
2018-07-02T03:25:06.542Z,90.66
2018-07-02T03:26:06.548Z,91.24
2018-07-02T03:27:06.560Z,91.33
2018-07-02T03:28:06.227Z,92.33
2018-07-02T03:29:06.480Z,93.37
2018-07-02T03:30:06.206Z,94.23
2018-07-02T03:31:06.481Z,95.17
2018-07-02T03:32:06.645Z,95.7
2018-07-02T03:33:06.452Z,94.84
2018-07-02T03:34:06.423Z,95.6
2018-07-02T03:35:06.431Z,96.64
2018-07-02T03:36:07.011Z,95.79
2018-07-02T03:37:06.398Z,96.74
2018-07-02T03:38:06.388Z,96.45
2018-07-02T03:39:06.372Z,96.74
2018-07-02T03:40:06.085Z,95.89
2018-07-02T03:41:06.072Z,95.51
2018-07-02T03:42:06.344Z,96.36
2018-07-02T03:43:06.326Z,94.65
2018-07-02T03:44:06.609Z,91.42
2018-07-02T03:45:06.301Z,89.72
2018-07-02T03:46:06.313Z,88.57
2018-07-02T03:47:06.278Z,86.35
2018-07-02T03:48:06.619Z,86.72
2018-07-02T03:49:06.263Z,86.96
2018-07-02T03:50:06.275Z,86.87
2018-07-02T03:51:06.247Z,91.42
2018-07-02T03:52:06.663Z,92.09
2018-07-02T03:53:05.928Z,90.76
2018-07-02T03:54:06.187Z,89.05
2018-07-02T03:55:06.184Z,89.33
2018-07-02T03:56:06.583Z,89.43
2018-07-02T03:57:06.151Z,88.57
2018-07-02T03:58:06.137Z,84.68
2018-07-02T03:59:06.136Z,82.03
2018-07-02T04:00:06.681Z,79.84
2018-07-02T04:01:05.833Z,80.69
2018-07-02T04:02:06.090Z,82.4
2018-07-02T04:03:06.093Z,81.45
2018-07-02T04:04:06.649Z,80.88
2018-07-02T04:05:05.788Z,82.12
2018-07-02T04:06:05.773Z,84.87
2018-07-02T04:07:05.763Z,87.24
2018-07-02T04:08:06.570Z,89.62
2018-07-02T04:09:06.018Z,91.61
2018-07-02T04:10:06.012Z,92.28
2018-07-02T04:11:05.998Z,90.95
2018-07-02T04:12:06.669Z,90.95
2018-07-02T04:13:05.717Z,88.76
2018-07-02T04:14:05.959Z,87.24
2018-07-02T04:15:06.536Z,86.11
2018-07-02T04:16:06.460Z,84.68
2018-07-02T04:17:06.503Z,86.01
2018-07-02T04:18:05.912Z,88.48
2018-07-02T04:19:06.329Z,87.05
2018-07-02T04:20:05.911Z,80.51
2018-07-02T04:21:06.251Z,77.56
2018-07-02T04:22:05.586Z,77.09
2018-07-02T04:23:05.581Z,75.67
2018-07-02T04:24:05.560Z,74.71
2018-07-02T04:25:06.486Z,74.62
2018-07-02T04:26:05.851Z,74.43
2018-07-02T04:27:06.343Z,72.25
2018-07-02T04:28:05.807Z,70.48
2018-07-02T04:29:05.799Z,71.43
2018-07-02T04:30:05.781Z,71.67
2018-07-02T04:31:05.479Z,71.43
2018-07-02T04:32:05.740Z,73.71
2018-07-02T04:33:05.458Z,74.94
2018-07-02T04:34:05.753Z,74.27
2018-07-02T04:35:05.432Z,73.04
2018-07-02T04:36:05.419Z,72.38
2018-07-02T04:37:05.697Z,70.48
2018-07-02T04:38:05.676Z,69.05
2018-07-02T04:39:05.729Z,68.1
2018-07-02T04:40:05.376Z,67.34
2018-07-02T04:41:05.365Z,70.57
2018-07-02T04:42:05.633Z,75.6
2018-07-02T04:43:05.339Z,79.79
2018-07-02T04:44:06.118Z,81.49
2018-07-02T04:45:06.172Z,80.74
2018-07-02T04:46:06.153Z,80.93
2018-07-02T04:47:06.161Z,82.26
2018-07-02T04:48:05.985Z,82.26
2018-07-02T04:49:06.101Z,81.49
2018-07-02T04:50:06.018Z,77.6
2018-07-02T04:51:06.072Z,75.04
2018-07-02T04:52:06.032Z,74.88
2018-07-02T04:53:06.050Z,76.59
2018-07-02T04:54:06.037Z,79.25
2018-07-02T04:55:05.204Z,79.35
2018-07-02T04:56:05.194Z,78.21
2018-07-02T04:57:05.443Z,80.4
2018-07-02T04:58:05.492Z,78.02
2018-07-02T04:59:05.157Z,78.5
2018-07-02T05:00:05.415Z,78.69
2018-07-02T05:01:05.401Z,82.1
2018-07-02T05:02:05.383Z,84.86
2018-07-02T05:03:05.118Z,85.15
2018-07-02T05:04:05.360Z,86.57
2018-07-02T05:05:05.353Z,85.34
2018-07-02T05:06:05.344Z,84.86
2018-07-02T05:07:05.330Z,82.2
2018-07-02T05:08:05.323Z,78.88
2018-07-02T05:09:05.311Z,76.63
2018-07-02T05:10:05.297Z,79.49
2018-07-02T05:11:05.290Z,81.77
2018-07-02T05:12:05.277Z,83.86
2018-07-02T05:13:05.263Z,81.67
2018-07-02T05:14:05.259Z,78.91
2018-07-02T05:15:04.986Z,80.05
2018-07-02T05:16:05.234Z,79.77
2018-07-02T05:17:04.995Z,81.96
2018-07-02T05:18:05.215Z,83
2018-07-02T05:19:05.201Z,82.62
2018-07-02T05:20:05.191Z,84.81
2018-07-02T05:21:05.181Z,83.48
2018-07-02T05:22:05.167Z,80.15
2018-07-02T05:23:05.165Z,77.58
2018-07-02T05:24:05.153Z,77.01
2018-07-02T05:25:04.886Z,79.05
2018-07-02T05:26:05.129Z,83.04
2018-07-02T05:27:05.121Z,83.62
2018-07-02T05:28:04.848Z,81.52
2018-07-02T05:29:04.838Z,83.42
2018-07-02T05:30:04.831Z,84.38
2018-07-02T05:31:05.081Z,87.23
2018-07-02T05:32:05.068Z,87.61
2018-07-02T05:33:04.796Z,88.56
2018-07-02T05:34:05.046Z,88.85
2018-07-02T05:35:05.034Z,86.85
2018-07-02T05:36:04.767Z,84.95
2018-07-02T05:37:05.019Z,87.13
2018-07-02T05:38:05.012Z,91.42
2018-07-02T05:39:04.737Z,93.23
2018-07-02T05:40:04.731Z,94.03
2018-07-02T05:41:04.720Z,99.99
2018-07-02T05:42:04.712Z,99.99
2018-07-02T05:43:04.955Z,99.99
2018-07-02T05:44:04.941Z,99.99
2018-07-02T05:45:04.679Z,99.99
2018-07-02T05:46:04.669Z,99.99
2018-07-02T05:47:04.921Z,99.99
2018-07-02T05:48:04.649Z,99.99
2018-07-02T05:49:04.897Z,99.99
2018-07-02T05:50:04.629Z,99.99
2018-07-02T05:51:04.624Z,99.99
2018-07-02T05:52:04.871Z,99.99
2018-07-02T05:53:04.599Z,99.99
2018-07-02T05:54:04.589Z,99.99
2018-07-02T05:55:04.586Z,99.99
2018-07-02T05:56:04.572Z,99.99
2018-07-02T05:57:04.564Z,99.99
2018-07-02T05:58:04.552Z,99.99
2018-07-02T05:59:04.806Z,99.99
2018-07-02T06:00:04.830Z,99.99
2018-07-02T06:01:04.790Z,99.99
2018-07-02T06:02:04.518Z,99.99
2018-07-02T06:03:04.509Z,99.99
2018-07-02T06:04:04.754Z,99.99
2018-07-02T06:05:04.752Z,99.99
2018-07-02T06:06:04.975Z,99.99
2018-07-02T06:07:04.471Z,99.99
2018-07-02T06:08:04.874Z,99.99
2018-07-02T06:09:04.455Z,99.99
2018-07-02T06:10:04.446Z,99.99
2018-07-02T06:11:04.439Z,99.99
2018-07-02T06:12:04.695Z,99.99
2018-07-02T06:13:04.418Z,99.99
2018-07-02T06:14:04.671Z,99.99
2018-07-02T06:15:04.406Z,99.99
2018-07-02T06:16:04.673Z,99.99
2018-07-02T06:17:04.391Z,99.99
2018-07-02T06:18:04.642Z,99.99
2018-07-02T06:19:04.629Z,99.99
2018-07-02T06:20:04.622Z,99.99
2018-07-02T06:21:04.618Z,99.99
2018-07-02T06:22:04.345Z,99.99
2018-07-02T06:23:04.337Z,99.99
2018-07-02T06:24:04.593Z,99.99
2018-07-02T06:25:04.581Z,99.99
2018-07-02T06:26:04.312Z,99.99
2018-07-02T06:27:04.309Z,99.99
2018-07-02T06:28:04.556Z,99.99
2018-07-02T06:29:04.288Z,99.42
2018-07-02T06:30:04.284Z,93.79
2018-07-02T06:31:04.537Z,87.25
2018-07-02T06:32:04.266Z,87.25
2018-07-02T06:33:04.515Z,86.58
2018-07-02T06:34:04.507Z,89.64
2018-07-02T06:35:04.519Z,94.55
2018-07-02T06:36:04.236Z,87.06
2018-07-02T06:37:04.236Z,82.14
2018-07-02T06:38:04.479Z,79.08
2018-07-02T06:39:04.212Z,77.36
2018-07-02T06:40:04.462Z,76.12
2018-07-02T06:41:04.483Z,73.83
2018-07-02T06:42:04.215Z,71.92
2018-07-02T06:43:04.446Z,72.91
2018-07-02T06:44:04.178Z,74.53
2018-07-02T06:45:04.428Z,68.07
2018-07-02T06:46:04.166Z,64.18
2018-07-02T06:47:04.156Z,58.31
2018-07-02T06:48:04.152Z,53.31
2018-07-02T06:49:04.149Z,48.4
2018-07-02T06:50:04.143Z,43.07
2018-07-02T06:51:04.399Z,38.02
2018-07-02T06:52:04.135Z,37.87
2018-07-02T06:53:04.129Z,35.38
2018-07-02T06:54:04.130Z,33.1
2018-07-02T06:55:04.120Z,32.82
2018-07-02T06:56:04.117Z,31.68
2018-07-02T06:57:04.116Z,31.23
2018-07-02T06:58:04.114Z,27.67
2018-07-02T06:59:04.369Z,27.68
2018-07-02T07:00:04.109Z,25.56
2018-07-02T07:01:04.109Z,24.51
2018-07-02T07:02:04.369Z,23.93
2018-07-02T07:03:04.372Z,25.01
2018-07-02T07:04:04.111Z,24.91
2018-07-02T07:05:04.371Z,24.91
2018-07-02T07:06:04.372Z,25.51
2018-07-02T07:07:04.115Z,24.24
2018-07-02T07:08:04.109Z,23.96
2018-07-02T07:09:04.367Z,22.99
2018-07-02T07:10:04.378Z,21.15
2018-07-02T07:11:04.373Z,20.96
2018-07-02T07:12:04.115Z,20.47
2018-07-02T07:13:04.118Z,19.99
2018-07-02T07:14:04.119Z,19.8
2018-07-02T07:15:04.383Z,19.7
2018-07-02T07:16:04.381Z,19.61
2018-07-02T07:17:04.389Z,19.7
2018-07-02T07:18:04.127Z,21.15
2018-07-02T07:19:04.128Z,20.97
2018-07-02T07:20:04.131Z,21.06
2018-07-02T07:21:04.402Z,20.78
2018-07-02T07:22:04.411Z,20.49
2018-07-02T07:23:04.397Z,20.99
2018-07-02T07:24:04.399Z,19.82
2018-07-02T07:25:04.413Z,19.43
2018-07-02T07:26:04.403Z,19.44
2018-07-02T07:27:04.410Z,19.15
2018-07-02T07:28:04.412Z,19.35
2018-07-02T07:29:04.414Z,19.92
2018-07-02T07:30:04.161Z,21.29
2018-07-02T07:31:04.518Z,20.32
2018-07-02T07:32:04.170Z,18.96
2018-07-02T07:33:04.172Z,18.87
2018-07-02T07:34:04.172Z,19.44
2018-07-02T07:35:04.438Z,19.83
2018-07-02T07:36:04.446Z,18.58
2018-07-02T07:37:04.183Z,18.19
2018-07-02T07:38:04.444Z,17.8
2018-07-02T07:39:04.193Z,18.39
2018-07-02T07:40:04.457Z,16.93
2018-07-02T07:41:04.458Z,17.43
2018-07-02T07:42:04.466Z,18.29
2018-07-02T07:43:04.464Z,19.46
2018-07-02T07:44:04.215Z,19.27
2018-07-02T07:45:04.219Z,18
2018-07-02T07:46:04.481Z,17.61
2018-07-02T07:47:04.227Z,18.29
2018-07-02T07:48:04.228Z,18.88
2018-07-02T07:49:04.496Z,17.42
2018-07-02T07:50:04.497Z,17.99
2018-07-02T07:51:04.503Z,17.79
2018-07-02T07:52:04.248Z,18.75
2018-07-02T07:53:04.527Z,18.56
2018-07-02T07:54:04.520Z,19.04
2018-07-02T07:55:04.518Z,18.46
2018-07-02T07:56:04.266Z,18.16
2018-07-02T07:57:04.272Z,19.91
2018-07-02T07:58:04.538Z,19.32
2018-07-02T07:59:04.280Z,17.97
2018-07-02T08:00:04.283Z,18.16
2018-07-02T08:01:04.553Z,19.02
2018-07-02T08:02:04.294Z,20.59
2018-07-02T08:03:04.561Z,19.92
2018-07-02T08:04:04.558Z,19.34
2018-07-02T08:05:04.315Z,19.63
2018-07-02T08:06:04.594Z,19.53
2018-07-02T08:07:04.570Z,18.66
2018-07-02T08:08:04.582Z,17.79
2018-07-02T08:09:04.321Z,19.44
2018-07-02T08:10:04.586Z,19.73
2018-07-02T08:11:04.329Z,19.54
2018-07-02T08:12:04.609Z,18.37
2018-07-02T08:13:04.597Z,19.25
2018-07-02T08:14:04.335Z,19.44
2018-07-02T08:15:04.598Z,19.91
2018-07-02T08:16:04.344Z,20.49
2018-07-02T08:17:04.608Z,21.08
2018-07-02T08:18:04.351Z,19.81
2018-07-02T08:19:04.786Z,21.06
2018-07-02T08:20:04.355Z,21.16
2018-07-02T08:21:04.354Z,22.41
2018-07-02T08:22:04.616Z,22.99
2018-07-02T08:23:04.620Z,23.26
2018-07-02T08:24:04.620Z,24.13
2018-07-02T08:25:04.362Z,23.33
2018-07-02T08:26:04.621Z,22.45
2018-07-02T08:27:04.364Z,24.56
2018-07-02T08:28:04.665Z,26.37
2018-07-02T08:29:04.623Z,26.75
2018-07-02T08:30:04.627Z,27.5
2018-07-02T08:31:04.624Z,29.52
2018-07-02T08:32:04.369Z,28.04
2018-07-02T08:33:04.822Z,29.1
2018-07-02T08:34:04.371Z,30.34
2018-07-02T08:35:04.369Z,31.01
2018-07-02T08:36:04.633Z,29.74
2018-07-02T08:37:04.369Z,31.29
2018-07-02T08:38:04.623Z,31.85
2018-07-02T08:39:04.625Z,32.71
2018-07-02T08:40:04.671Z,34.35
2018-07-02T08:41:04.627Z,34.25
2018-07-02T08:42:04.628Z,32.04
2018-07-02T08:43:04.363Z,30.31
2018-07-02T08:44:04.366Z,32.31
2018-07-02T08:45:04.622Z,33.08
2018-07-02T08:46:04.361Z,31.64
2018-07-02T08:47:04.361Z,30.77
2018-07-02T08:48:04.614Z,33.66
2018-07-02T08:49:04.359Z,31.45
2018-07-02T08:50:04.618Z,30.97
2018-07-02T08:51:04.617Z,35.76
2018-07-02T08:52:04.353Z,35.57
2018-07-02T08:53:04.356Z,33.08
2018-07-02T08:54:04.372Z,33.16
2018-07-02T08:55:04.353Z,32.68
2018-07-02T08:56:04.349Z,32.01
2018-07-02T08:57:04.602Z,32.68
2018-07-02T08:58:04.606Z,33.07
2018-07-02T08:59:04.343Z,32.3
2018-07-02T09:00:04.600Z,33.26
2018-07-02T09:01:04.342Z,33.36
2018-07-02T09:02:04.338Z,33.54
2018-07-02T09:03:04.343Z,33.85
2018-07-02T09:04:04.336Z,32.21
2018-07-02T09:05:04.587Z,30.02
2018-07-02T09:06:04.334Z,31.64
2018-07-02T09:07:04.329Z,35.68
2018-07-02T09:08:04.327Z,34.33
2018-07-02T09:09:04.326Z,33.28
2018-07-02T09:10:04.585Z,35
2018-07-02T09:11:04.577Z,33.29
2018-07-02T09:12:04.347Z,33.97
2018-07-02T09:13:04.574Z,33.67
2018-07-02T09:14:04.314Z,32.71
2018-07-02T09:15:04.316Z,31.18
2018-07-02T09:16:04.570Z,31.08
2018-07-02T09:17:04.308Z,33.47
2018-07-02T09:18:04.310Z,35
2018-07-02T09:19:04.722Z,35.3
2018-07-02T09:20:04.302Z,35.49
2018-07-02T09:21:04.302Z,37.12
2018-07-02T09:22:04.561Z,38.56
2018-07-02T09:23:04.558Z,37.79
2018-07-02T09:24:04.299Z,38.1
2018-07-02T09:25:04.551Z,37.62
2018-07-02T09:26:04.294Z,36.56
2018-07-02T09:27:04.293Z,37.24
2018-07-02T09:28:04.289Z,37.43
2018-07-02T09:29:04.545Z,36.85
2018-07-02T09:30:04.311Z,33.77
2018-07-02T09:31:04.287Z,34.35
2018-07-02T09:32:04.542Z,34.54
2018-07-02T09:33:04.282Z,34.06
2018-07-02T09:34:04.542Z,36.66
2018-07-02T09:35:04.278Z,36.85
2018-07-02T09:36:04.531Z,36.76
2018-07-02T09:37:04.539Z,34.35
2018-07-02T09:38:04.278Z,34.54
2018-07-02T09:39:04.288Z,34.92
2018-07-02T09:40:04.269Z,34.64
2018-07-02T09:41:04.266Z,35.6
2018-07-02T09:42:04.267Z,35.7
2018-07-02T09:43:04.516Z,35.22
2018-07-02T09:44:04.261Z,33.58
2018-07-02T09:45:04.256Z,34.64
2018-07-02T09:46:04.514Z,35.79
2018-07-02T09:47:04.256Z,39.26
2018-07-02T09:48:04.251Z,36.66
2018-07-02T09:49:04.249Z,32.92
2018-07-02T09:50:04.249Z,35.31
2018-07-02T09:51:04.504Z,36.76
2018-07-02T09:52:04.243Z,37.62
2018-07-02T09:53:04.498Z,37.35
2018-07-02T09:54:04.240Z,38.12
2018-07-02T09:55:04.511Z,36.77
2018-07-02T09:56:04.495Z,34.56
2018-07-02T09:57:04.497Z,35.24
2018-07-02T09:58:04.492Z,34.46
2018-07-02T09:59:04.492Z,34.64
2018-07-02T10:00:04.488Z,35.02
2018-07-02T10:01:04.227Z,35.7
2018-07-02T10:02:04.489Z,35.79
2018-07-02T10:03:04.225Z,37.34
2018-07-02T10:04:04.220Z,35.7
2018-07-02T10:05:04.476Z,34.25
2018-07-02T10:06:04.219Z,35.79
2018-07-02T10:07:04.472Z,36.95
2018-07-02T10:08:04.215Z,36.18
2018-07-02T10:09:04.213Z,33.67
2018-07-02T10:10:04.263Z,32.71
2018-07-02T10:11:04.475Z,33.39
2018-07-02T10:12:04.208Z,33.67
2018-07-02T10:13:04.209Z,32.81
2018-07-02T10:14:04.466Z,32.89
2018-07-02T10:15:04.201Z,34.43
2018-07-02T10:16:04.202Z,36.74
2018-07-02T10:17:04.199Z,36.56
2018-07-02T10:18:04.198Z,37.34
2018-07-02T10:19:04.191Z,37.51
2018-07-02T10:20:04.193Z,36.56
2018-07-02T10:21:04.446Z,35.1
2018-07-02T10:22:04.505Z,35.68
2018-07-02T10:23:04.443Z,35
2018-07-02T10:24:04.185Z,35.77
2018-07-02T10:25:04.444Z,36.83
2018-07-02T10:26:04.443Z,36.66
2018-07-02T10:27:04.180Z,36.37
2018-07-02T10:28:04.441Z,38.1
2018-07-02T10:29:04.488Z,38.78
2018-07-02T10:30:04.175Z,37.72
2018-07-02T10:31:04.239Z,36.56
2018-07-02T10:32:04.168Z,36.76
2018-07-02T10:33:04.167Z,37.62
2018-07-02T10:34:04.164Z,36.47
2018-07-02T10:35:04.161Z,35.6
2018-07-02T10:36:04.423Z,35.41
2018-07-02T10:37:04.161Z,36.18
2018-07-02T10:38:04.156Z,38.2
2018-07-02T10:39:04.157Z,37.81
2018-07-02T10:40:04.553Z,37.43
2018-07-02T10:41:04.413Z,38.01
2018-07-02T10:42:04.404Z,36.66
2018-07-02T10:43:04.406Z,35.77
2018-07-02T10:44:04.144Z,37.12
2018-07-02T10:45:04.143Z,38.97
2018-07-02T10:46:04.143Z,38.1
2018-07-02T10:47:04.154Z,39.93
2018-07-02T10:48:04.399Z,39.54
2018-07-02T10:49:04.137Z,40.31
2018-07-02T10:50:04.140Z,39.37
2018-07-02T10:51:04.388Z,39.47
2018-07-02T10:52:04.127Z,40.05
2018-07-02T10:53:04.385Z,39.66
2018-07-02T10:54:04.130Z,39.97
2018-07-02T10:55:04.124Z,37.66
2018-07-02T10:56:04.382Z,34.67
2018-07-02T10:57:04.122Z,34.09
2018-07-02T10:58:04.117Z,36.49
2018-07-02T10:59:04.397Z,39.18
2018-07-02T11:00:04.378Z,40.43
2018-07-02T11:01:04.117Z,38.22
2018-07-02T11:02:04.376Z,35.42
2018-07-02T11:03:04.368Z,36
2018-07-02T11:04:04.107Z,38.6
2018-07-02T11:05:04.371Z,38.12
2018-07-02T11:06:04.365Z,36.39
2018-07-02T11:07:04.104Z,37.45
2018-07-02T11:08:04.376Z,35.81
2018-07-02T11:09:04.360Z,36.87
2018-07-02T11:10:04.108Z,37.64
2018-07-02T11:11:04.425Z,35.04
2018-07-02T11:12:04.354Z,35.42
2018-07-02T11:13:04.092Z,35.71
2018-07-02T11:14:04.093Z,37.45
2018-07-02T11:15:04.350Z,34.75
2018-07-02T11:16:04.088Z,36.19
2018-07-02T11:17:04.366Z,36.87
2018-07-02T11:18:04.346Z,33.89
2018-07-02T11:19:04.085Z,34.66
2018-07-02T11:20:04.340Z,35.04
2018-07-02T11:21:04.344Z,34.66
2018-07-02T11:22:04.080Z,32.25
2018-07-02T11:23:04.335Z,35.62
2018-07-02T11:24:04.078Z,36.87
2018-07-02T11:25:04.341Z,34.94
2018-07-02T11:26:04.332Z,36
2018-07-02T11:27:04.072Z,39.09
2018-07-02T11:28:04.329Z,36.99
2018-07-02T11:29:04.068Z,35.06
2018-07-02T11:30:04.334Z,33.12
2018-07-02T11:31:04.330Z,32.06
2018-07-02T11:32:04.329Z,31.87
2018-07-02T11:33:04.319Z,33
2018-07-02T11:34:04.320Z,37.52
2018-07-02T11:35:04.059Z,37.26
2018-07-02T11:36:04.057Z,38.99
2018-07-02T11:37:04.058Z,39.09
2018-07-02T11:38:04.316Z,35.62
2018-07-02T11:39:04.061Z,34.17
2018-07-02T11:40:04.062Z,33.79
2018-07-02T11:41:04.309Z,33.98
2018-07-02T11:42:04.048Z,34.08
2018-07-02T11:43:04.305Z,34.84
2018-07-02T11:44:04.337Z,33.79
2018-07-02T11:45:04.302Z,34.56
2018-07-02T11:46:04.299Z,33.59
2018-07-02T11:47:04.303Z,33.12
2018-07-02T11:48:04.308Z,34.27
2018-07-02T11:49:04.297Z,33.59
2018-07-02T11:50:04.045Z,34.66
2018-07-02T11:51:04.045Z,36.77
2018-07-02T11:52:04.039Z,36.97
2018-07-02T11:53:04.034Z,32.34
2018-07-02T11:54:04.032Z,31.67
2018-07-02T11:55:04.031Z,33.5
2018-07-02T11:56:04.341Z,34.66
2018-07-02T11:57:04.295Z,33.21
2018-07-02T11:58:04.028Z,36.56
2018-07-02T11:59:04.283Z,34.27
2018-07-02T12:00:04.026Z,31
2018-07-02T12:01:04.023Z,30.4
2018-07-02T12:02:04.023Z,30.11
2018-07-02T12:03:04.280Z,30.79
2018-07-02T12:04:04.278Z,32.33
2018-07-02T12:05:04.279Z,31.65
2018-07-02T12:06:04.274Z,35.5
2018-07-02T12:07:04.270Z,33.87
2018-07-02T12:08:04.271Z,34.06
2018-07-02T12:09:04.010Z,34.54
2018-07-02T12:10:04.268Z,35.52
2018-07-02T12:11:04.009Z,35.33
2018-07-02T12:12:04.005Z,34.46
2018-07-02T12:13:04.006Z,32.73
2018-07-02T12:14:04.272Z,35.04
2018-07-02T12:15:04.262Z,33.69
2018-07-02T12:16:04.003Z,34.17
2018-07-02T12:17:03.995Z,36.39
2018-07-02T12:18:03.996Z,34.17
2018-07-02T12:19:04.256Z,32.82
2018-07-02T12:20:03.990Z,33.31
2018-07-02T12:21:04.249Z,35.14
2018-07-02T12:22:04.246Z,34.17
2018-07-02T12:23:03.989Z,35.52
2018-07-02T12:24:04.242Z,34.56
2018-07-02T12:25:04.239Z,34.66
2018-07-02T12:26:04.273Z,33.69
2018-07-02T12:27:04.236Z,33.02
2018-07-02T12:28:04.239Z,31.48
2018-07-02T12:29:04.247Z,31.19
2018-07-02T12:30:04.239Z,31.77
2018-07-02T12:31:03.975Z,34.94
2018-07-02T12:32:03.972Z,33.4
2018-07-02T12:33:03.971Z,30.04
2018-07-02T12:34:03.976Z,32.34
2018-07-02T12:35:03.972Z,33.98
2018-07-02T12:36:04.231Z,32.15
2018-07-02T12:37:04.221Z,31.19
2018-07-02T12:38:03.972Z,32.25
2018-07-02T12:39:03.964Z,33.59
2018-07-02T12:40:04.225Z,34.96
2018-07-02T12:41:03.964Z,33.51
2018-07-02T12:42:04.217Z,34.58
2018-07-02T12:43:04.218Z,30.32
2018-07-02T12:44:03.955Z,31.19
2018-07-02T12:45:03.955Z,35.52
2018-07-02T12:46:04.216Z,34.17
2018-07-02T12:47:03.955Z,31.49
2018-07-02T12:48:03.952Z,31.96
2018-07-02T12:49:03.952Z,34.46
2018-07-02T12:50:04.210Z,34.29
2018-07-02T12:51:04.209Z,30.05
2018-07-02T12:52:04.207Z,31
2018-07-02T12:53:03.945Z,32.26
2018-07-02T12:54:04.297Z,35.64